sensor_id;sensor_type;location;lat;lon;timestamp;P1;durP1;ratioP1;P2;durP2;ratioP2
2784;SDS011;57944;48.722;9.316;2022-11-20T00:01:49;21.13;;;7.70;;
2784;SDS011;57944;48.722;9.316;2022-11-20T00:04:19;19.43;;;7.60;;
2784;SDS011;57944;48.722;9.316;2022-11-20T00:06:49;10.30;;;6.10;;
2784;SDS011;57944;48.722;9.316;2022-11-20T00:09:19;11.20;;;6.90;;
2784;SDS011;57944;48.722;9.316;2022-11-20T00:11:50;11.07;;;6.87;;
2784;SDS011;57944;48.722;9.316;2022-11-20T00:14:20;11.70;;;7.10;;
2784;SDS011;57944;48.722;9.316;2022-11-20T00:16:52;9.20;;;6.33;;
2784;SDS011;57944;48.722;9.316;2022-11-20T00:19:22;9.23;;;6.20;;
2784;SDS011;57944;48.722;9.316;2022-11-20T00:21:53;9.03;;;7.20;;
2784;SDS011;57944;48.722;9.316;2022-11-20T00:24:23;10.40;;;6.40;;
2784;SDS011;57944;48.722;9.316;2022-11-20T00:26:53;9.43;;;6.30;;
2784;SDS011;57944;48.722;9.316;2022-11-20T00:29:23;10.87;;;6.53;;
2784;SDS011;57944;48.722;9.316;2022-11-20T00:31:56;8.80;;;6.63;;
2784;SDS011;57944;48.722;9.316;2022-11-20T00:34:26;9.40;;;6.70;;
2784;SDS011;57944;48.722;9.316;2022-11-20T00:36:56;10.20;;;6.33;;
2784;SDS011;57944;48.722;9.316;2022-11-20T00:39:26;8.70;;;6.30;;
2784;SDS011;57944;48.722;9.316;2022-11-20T00:41:56;11.47;;;7.27;;
2784;SDS011;57944;48.722;9.316;2022-11-20T00:44:26;11.57;;;7.33;;
2784;SDS011;57944;48.722;9.316;2022-11-20T00:46:59;12.07;;;6.53;;
2784;SDS011;57944;48.722;9.316;2022-11-20T00:49:29;12.20;;;7.03;;
2784;SDS011;57944;48.722;9.316;2022-11-20T00:51:59;11.53;;;6.80;;
2784;SDS011;57944;48.722;9.316;2022-11-20T00:54:29;8.03;;;5.03;;
2784;SDS011;57944;48.722;9.316;2022-11-20T00:56:59;9.70;;;6.20;;
2784;SDS011;57944;48.722;9.316;2022-11-20T00:59:29;10.10;;;6.53;;
2784;SDS011;57944;48.722;9.316;2022-11-20T01:02:02;11.70;;;5.30;;
2784;SDS011;57944;48.722;9.316;2022-11-20T01:04:32;11.10;;;5.07;;
2784;SDS011;57944;48.722;9.316;2022-11-20T01:07:02;7.30;;;5.10;;
2784;SDS011;57944;48.722;9.316;2022-11-20T01:09:33;6.83;;;4.93;;
2784;SDS011;57944;48.722;9.316;2022-11-20T01:12:04;10.63;;;5.30;;
2784;SDS011;57944;48.722;9.316;2022-11-20T01:14:35;8.00;;;6.10;;
2784;SDS011;57944;48.722;9.316;2022-11-20T01:17:08;7.93;;;5.30;;
2784;SDS011;57944;48.722;9.316;2022-11-20T01:19:38;10.20;;;5.83;;
2784;SDS011;57944;48.722;9.316;2022-11-20T01:22:08;8.03;;;5.00;;
2784;SDS011;57944;48.722;9.316;2022-11-20T01:24:39;10.63;;;5.57;;
2784;SDS011;57944;48.722;9.316;2022-11-20T01:27:09;7.30;;;5.07;;
2784;SDS011;57944;48.722;9.316;2022-11-20T01:29:39;8.73;;;6.03;;
2784;SDS011;57944;48.722;9.316;2022-11-20T01:32:11;8.17;;;5.63;;
2784;SDS011;57944;48.722;9.316;2022-11-20T01:34:41;8.97;;;5.53;;
2784;SDS011;57944;48.722;9.316;2022-11-20T01:37:11;7.07;;;4.90;;
2784;SDS011;57944;48.722;9.316;2022-11-20T01:39:41;11.53;;;5.60;;
2784;SDS011;57944;48.722;9.316;2022-11-20T01:42:11;8.90;;;5.30;;
2784;SDS011;57944;48.722;9.316;2022-11-20T01:44:55;7.80;;;4.83;;
2784;SDS011;57944;48.722;9.316;2022-11-20T01:47:33;7.60;;;4.33;;
2784;SDS011;57944;48.722;9.316;2022-11-20T01:50:09;6.37;;;4.47;;
2784;SDS011;57944;48.722;9.316;2022-11-20T01:52:46;6.47;;;4.30;;
2784;SDS011;57944;48.722;9.316;2022-11-20T01:55:26;8.87;;;4.93;;
2784;SDS011;57944;48.722;9.316;2022-11-20T01:58:00;6.20;;;4.33;;
2784;SDS011;57944;48.722;9.316;2022-11-20T02:00:33;10.57;;;5.37;;
2784;SDS011;57944;48.722;9.316;2022-11-20T02:03:07;6.57;;;4.33;;
2784;SDS011;57944;48.722;9.316;2022-11-20T02:05:41;9.73;;;4.53;;
2784;SDS011;57944;48.722;9.316;2022-11-20T02:08:19;7.00;;;4.40;;
2784;SDS011;57944;48.722;9.316;2022-11-20T02:10:52;6.93;;;4.23;;
2784;SDS011;57944;48.722;9.316;2022-11-20T02:13:22;5.30;;;3.83;;
2784;SDS011;57944;48.722;9.316;2022-11-20T02:16:05;7.87;;;5.00;;
2784;SDS011;57944;48.722;9.316;2022-11-20T02:18:43;5.57;;;3.70;;
2784;SDS011;57944;48.722;9.316;2022-11-20T02:24:14;6.87;;;3.90;;
2784;SDS011;57944;48.722;9.316;2022-11-20T02:26:50;8.00;;;4.90;;
2784;SDS011;57944;48.722;9.316;2022-11-20T02:29:24;6.90;;;3.83;;
2784;SDS011;57944;48.722;9.316;2022-11-20T02:31:59;6.73;;;4.47;;
2784;SDS011;57944;48.722;9.316;2022-11-20T02:34:31;7.57;;;4.83;;
2784;SDS011;57944;48.722;9.316;2022-11-20T02:37:01;8.50;;;5.27;;
2784;SDS011;57944;48.722;9.316;2022-11-20T02:39:34;8.70;;;4.80;;
2784;SDS011;57944;48.722;9.316;2022-11-20T02:42:05;8.60;;;5.83;;
2784;SDS011;57944;48.722;9.316;2022-11-20T02:44:35;7.23;;;4.53;;
2784;SDS011;57944;48.722;9.316;2022-11-20T02:47:05;9.40;;;6.00;;
2784;SDS011;57944;48.722;9.316;2022-11-20T02:49:35;9.67;;;5.30;;
2784;SDS011;57944;48.722;9.316;2022-11-20T02:52:05;9.33;;;6.03;;
2784;SDS011;57944;48.722;9.316;2022-11-20T02:54:38;8.60;;;5.50;;
2784;SDS011;57944;48.722;9.316;2022-11-20T02:57:08;8.00;;;5.03;;
2784;SDS011;57944;48.722;9.316;2022-11-20T02:59:38;10.40;;;6.40;;
2784;SDS011;57944;48.722;9.316;2022-11-20T03:02:08;8.97;;;5.33;;
2784;SDS011;57944;48.722;9.316;2022-11-20T03:04:38;6.90;;;4.87;;
2784;SDS011;57944;48.722;9.316;2022-11-20T03:07:09;9.93;;;5.57;;
2784;SDS011;57944;48.722;9.316;2022-11-20T03:09:41;6.80;;;4.80;;
2784;SDS011;57944;48.722;9.316;2022-11-20T03:12:13;6.83;;;4.93;;
2784;SDS011;57944;48.722;9.316;2022-11-20T03:14:43;8.00;;;5.60;;
2784;SDS011;57944;48.722;9.316;2022-11-20T03:17:18;7.43;;;5.70;;
2784;SDS011;57944;48.722;9.316;2022-11-20T03:19:49;9.30;;;6.10;;
2784;SDS011;57944;48.722;9.316;2022-11-20T03:22:18;9.10;;;6.00;;
2784;SDS011;57944;48.722;9.316;2022-11-20T03:24:51;11.30;;;6.40;;
2784;SDS011;57944;48.722;9.316;2022-11-20T03:27:21;9.20;;;6.10;;
2784;SDS011;57944;48.722;9.316;2022-11-20T03:29:52;8.43;;;5.10;;
2784;SDS011;57944;48.722;9.316;2022-11-20T03:32:21;10.13;;;5.30;;
2784;SDS011;57944;48.722;9.316;2022-11-20T03:34:51;7.63;;;5.10;;
2784;SDS011;57944;48.722;9.316;2022-11-20T03:37:22;9.80;;;6.20;;
2784;SDS011;57944;48.722;9.316;2022-11-20T03:39:55;8.70;;;6.27;;
2784;SDS011;57944;48.722;9.316;2022-11-20T03:42:25;7.83;;;5.23;;
2784;SDS011;57944;48.722;9.316;2022-11-20T03:45:08;9.17;;;6.27;;
2784;SDS011;57944;48.722;9.316;2022-11-20T03:47:38;11.80;;;7.23;;
2784;SDS011;57944;48.722;9.316;2022-11-20T03:50:09;12.70;;;7.17;;
2784;SDS011;57944;48.722;9.316;2022-11-20T03:52:41;8.70;;;5.90;;
2784;SDS011;57944;48.722;9.316;2022-11-20T03:55:14;7.90;;;5.17;;
2784;SDS011;57944;48.722;9.316;2022-11-20T03:57:44;8.40;;;5.80;;
2784;SDS011;57944;48.722;9.316;2022-11-20T04:00:15;7.43;;;4.67;;
2784;SDS011;57944;48.722;9.316;2022-11-20T04:02:45;8.37;;;4.97;;
2784;SDS011;57944;48.722;9.316;2022-11-20T04:05:15;8.80;;;5.33;;
2784;SDS011;57944;48.722;9.316;2022-11-20T04:07:45;7.10;;;5.20;;
2784;SDS011;57944;48.722;9.316;2022-11-20T04:10:18;8.13;;;4.80;;
2784;SDS011;57944;48.722;9.316;2022-11-20T04:12:48;7.90;;;4.87;;
2784;SDS011;57944;48.722;9.316;2022-11-20T04:15:18;6.40;;;4.57;;
2784;SDS011;57944;48.722;9.316;2022-11-20T04:17:48;9.83;;;5.87;;
2784;SDS011;57944;48.722;9.316;2022-11-20T04:20:18;9.33;;;5.10;;
2784;SDS011;57944;48.722;9.316;2022-11-20T04:22:48;9.83;;;5.07;;
2784;SDS011;57944;48.722;9.316;2022-11-20T04:25:24;6.23;;;4.93;;
2784;SDS011;57944;48.722;9.316;2022-11-20T04:27:54;6.83;;;4.63;;
2784;SDS011;57944;48.722;9.316;2022-11-20T04:30:24;7.67;;;4.10;;
2784;SDS011;57944;48.722;9.316;2022-11-20T04:32:54;6.40;;;4.00;;
2784;SDS011;57944;48.722;9.316;2022-11-20T04:35:24;9.33;;;4.37;;
2784;SDS011;57944;48.722;9.316;2022-11-20T04:37:54;9.10;;;5.27;;
2784;SDS011;57944;48.722;9.316;2022-11-20T04:40:27;8.90;;;4.07;;
2784;SDS011;57944;48.722;9.316;2022-11-20T04:42:57;6.60;;;4.47;;
2784;SDS011;57944;48.722;9.316;2022-11-20T04:45:27;8.57;;;4.40;;
2784;SDS011;57944;48.722;9.316;2022-11-20T04:47:57;5.77;;;4.07;;
2784;SDS011;57944;48.722;9.316;2022-11-20T04:50:27;9.60;;;4.27;;
2784;SDS011;57944;48.722;9.316;2022-11-20T04:52:57;7.30;;;4.40;;
2784;SDS011;57944;48.722;9.316;2022-11-20T04:55:29;8.77;;;5.43;;
2784;SDS011;57944;48.722;9.316;2022-11-20T04:58:00;6.33;;;4.67;;
2784;SDS011;57944;48.722;9.316;2022-11-20T05:00:30;7.90;;;4.70;;
2784;SDS011;57944;48.722;9.316;2022-11-20T05:03:00;7.10;;;4.97;;
2784;SDS011;57944;48.722;9.316;2022-11-20T05:05:30;8.40;;;4.00;;
2784;SDS011;57944;48.722;9.316;2022-11-20T05:08:02;8.67;;;5.00;;
2784;SDS011;57944;48.722;9.316;2022-11-20T05:10:35;10.00;;;4.07;;
2784;SDS011;57944;48.722;9.316;2022-11-20T05:13:05;7.90;;;4.70;;
2784;SDS011;57944;48.722;9.316;2022-11-20T05:15:35;5.83;;;4.10;;
2784;SDS011;57944;48.722;9.316;2022-11-20T05:18:05;6.83;;;4.23;;
2784;SDS011;57944;48.722;9.316;2022-11-20T05:20:35;5.37;;;3.50;;
2784;SDS011;57944;48.722;9.316;2022-11-20T05:23:05;7.93;;;4.17;;
2784;SDS011;57944;48.722;9.316;2022-11-20T05:25:38;5.90;;;4.40;;
2784;SDS011;57944;48.722;9.316;2022-11-20T05:28:08;5.90;;;3.30;;
2784;SDS011;57944;48.722;9.316;2022-11-20T05:30:38;6.60;;;3.00;;
2784;SDS011;57944;48.722;9.316;2022-11-20T05:33:08;6.50;;;3.87;;
2784;SDS011;57944;48.722;9.316;2022-11-20T05:35:38;6.30;;;3.97;;
2784;SDS011;57944;48.722;9.316;2022-11-20T05:38:08;5.30;;;3.83;;
2784;SDS011;57944;48.722;9.316;2022-11-20T05:40:41;3.80;;;3.03;;
2784;SDS011;57944;48.722;9.316;2022-11-20T05:43:11;6.43;;;3.40;;
2784;SDS011;57944;48.722;9.316;2022-11-20T05:45:41;10.23;;;4.30;;
2784;SDS011;57944;48.722;9.316;2022-11-20T05:48:11;7.53;;;4.43;;
2784;SDS011;57944;48.722;9.316;2022-11-20T05:50:41;8.10;;;5.00;;
2784;SDS011;57944;48.722;9.316;2022-11-20T05:53:12;9.43;;;4.60;;
2784;SDS011;57944;48.722;9.316;2022-11-20T05:55:45;15.10;;;6.60;;
2784;SDS011;57944;48.722;9.316;2022-11-20T05:58:15;13.60;;;7.27;;
2784;SDS011;57944;48.722;9.316;2022-11-20T06:00:45;8.77;;;5.33;;
2784;SDS011;57944;48.722;9.316;2022-11-20T06:03:15;6.80;;;5.20;;
2784;SDS011;57944;48.722;9.316;2022-11-20T06:05:45;7.00;;;4.13;;
2784;SDS011;57944;48.722;9.316;2022-11-20T06:08:15;6.33;;;3.90;;
2784;SDS011;57944;48.722;9.316;2022-11-20T06:10:48;5.57;;;3.20;;
2784;SDS011;57944;48.722;9.316;2022-11-20T06:13:18;19.67;;;9.33;;
2784;SDS011;57944;48.722;9.316;2022-11-20T06:15:48;12.50;;;5.40;;
2784;SDS011;57944;48.722;9.316;2022-11-20T06:18:19;6.70;;;4.00;;
2784;SDS011;57944;48.722;9.316;2022-11-20T06:20:49;5.87;;;4.00;;
2784;SDS011;57944;48.722;9.316;2022-11-20T06:23:29;6.23;;;4.20;;
2784;SDS011;57944;48.722;9.316;2022-11-20T06:26:04;5.60;;;3.50;;
2784;SDS011;57944;48.722;9.316;2022-11-20T06:28:37;5.50;;;3.53;;
2784;SDS011;57944;48.722;9.316;2022-11-20T06:31:09;4.37;;;2.80;;
2784;SDS011;57944;48.722;9.316;2022-11-20T06:33:42;7.07;;;4.03;;
2784;SDS011;57944;48.722;9.316;2022-11-20T06:36:13;5.53;;;3.90;;
2784;SDS011;57944;48.722;9.316;2022-11-20T06:38:46;4.90;;;3.73;;
2784;SDS011;57944;48.722;9.316;2022-11-20T06:41:20;5.47;;;3.20;;
2784;SDS011;57944;48.722;9.316;2022-11-20T06:43:51;8.87;;;4.20;;
2784;SDS011;57944;48.722;9.316;2022-11-20T06:46:21;7.40;;;4.20;;
2784;SDS011;57944;48.722;9.316;2022-11-20T06:48:51;6.67;;;3.90;;
2784;SDS011;57944;48.722;9.316;2022-11-20T06:51:21;7.70;;;5.37;;
2784;SDS011;57944;48.722;9.316;2022-11-20T06:53:51;10.73;;;4.30;;
2784;SDS011;57944;48.722;9.316;2022-11-20T06:56:25;9.03;;;3.60;;
2784;SDS011;57944;48.722;9.316;2022-11-20T06:58:56;7.40;;;4.00;;
2784;SDS011;57944;48.722;9.316;2022-11-20T07:01:26;6.83;;;3.37;;
2784;SDS011;57944;48.722;9.316;2022-11-20T07:03:56;4.13;;;3.00;;
2784;SDS011;57944;48.722;9.316;2022-11-20T07:06:26;5.10;;;3.10;;
2784;SDS011;57944;48.722;9.316;2022-11-20T07:08:56;4.63;;;3.53;;
2784;SDS011;57944;48.722;9.316;2022-11-20T07:11:29;5.53;;;3.37;;
2784;SDS011;57944;48.722;9.316;2022-11-20T07:13:59;6.10;;;3.83;;
2784;SDS011;57944;48.722;9.316;2022-11-20T07:16:29;6.10;;;3.10;;
2784;SDS011;57944;48.722;9.316;2022-11-20T07:18:59;9.40;;;3.83;;
2784;SDS011;57944;48.722;9.316;2022-11-20T07:21:29;5.97;;;3.80;;
2784;SDS011;57944;48.722;9.316;2022-11-20T07:23:59;6.50;;;3.60;;
2784;SDS011;57944;48.722;9.316;2022-11-20T07:26:32;6.93;;;3.37;;
2784;SDS011;57944;48.722;9.316;2022-11-20T07:29:02;5.13;;;3.60;;
2784;SDS011;57944;48.722;9.316;2022-11-20T07:31:32;7.03;;;3.33;;
2784;SDS011;57944;48.722;9.316;2022-11-20T07:34:02;4.77;;;3.30;;
2784;SDS011;57944;48.722;9.316;2022-11-20T07:36:32;5.43;;;4.23;;
2784;SDS011;57944;48.722;9.316;2022-11-20T07:39:02;8.33;;;4.97;;
2784;SDS011;57944;48.722;9.316;2022-11-20T07:41:35;7.60;;;3.80;;
2784;SDS011;57944;48.722;9.316;2022-11-20T07:44:05;6.70;;;4.00;;
2784;SDS011;57944;48.722;9.316;2022-11-20T07:46:35;6.07;;;3.10;;
2784;SDS011;57944;48.722;9.316;2022-11-20T07:49:05;7.37;;;3.90;;
2784;SDS011;57944;48.722;9.316;2022-11-20T07:51:35;7.20;;;4.10;;
2784;SDS011;57944;48.722;9.316;2022-11-20T07:54:05;4.47;;;3.00;;
2784;SDS011;57944;48.722;9.316;2022-11-20T07:56:38;6.10;;;3.23;;
2784;SDS011;57944;48.722;9.316;2022-11-20T07:59:08;5.33;;;3.37;;
2784;SDS011;57944;48.722;9.316;2022-11-20T08:01:38;8.13;;;3.90;;
2784;SDS011;57944;48.722;9.316;2022-11-20T08:04:09;5.50;;;3.47;;
2784;SDS011;57944;48.722;9.316;2022-11-20T08:06:40;4.90;;;3.07;;
2784;SDS011;57944;48.722;9.316;2022-11-20T08:09:10;5.10;;;2.93;;
2784;SDS011;57944;48.722;9.316;2022-11-20T08:11:42;4.87;;;2.87;;
2784;SDS011;57944;48.722;9.316;2022-11-20T08:14:25;5.00;;;2.93;;
2784;SDS011;57944;48.722;9.316;2022-11-20T08:16:55;6.27;;;3.13;;
2784;SDS011;57944;48.722;9.316;2022-11-20T08:19:25;4.97;;;3.10;;
2784;SDS011;57944;48.722;9.316;2022-11-20T08:21:55;5.27;;;3.10;;
2784;SDS011;57944;48.722;9.316;2022-11-20T08:24:26;6.57;;;2.93;;
2784;SDS011;57944;48.722;9.316;2022-11-20T08:26:59;4.40;;;2.87;;
2784;SDS011;57944;48.722;9.316;2022-11-20T08:29:29;4.80;;;2.90;;
2784;SDS011;57944;48.722;9.316;2022-11-20T08:31:59;8.93;;;3.80;;
2784;SDS011;57944;48.722;9.316;2022-11-20T08:34:29;3.83;;;2.47;;
2784;SDS011;57944;48.722;9.316;2022-11-20T08:37:01;4.10;;;2.80;;
2784;SDS011;57944;48.722;9.316;2022-11-20T08:39:31;7.30;;;2.60;;
2784;SDS011;57944;48.722;9.316;2022-11-20T08:42:06;4.20;;;2.93;;
2784;SDS011;57944;48.722;9.316;2022-11-20T08:44:36;6.40;;;3.30;;
2784;SDS011;57944;48.722;9.316;2022-11-20T08:47:06;5.60;;;2.70;;
2784;SDS011;57944;48.722;9.316;2022-11-20T08:49:36;4.63;;;2.77;;
2784;SDS011;57944;48.722;9.316;2022-11-20T08:52:06;5.50;;;3.23;;
2784;SDS011;57944;48.722;9.316;2022-11-20T08:54:36;5.07;;;2.70;;
2784;SDS011;57944;48.722;9.316;2022-11-20T08:57:09;6.30;;;3.10;;
2784;SDS011;57944;48.722;9.316;2022-11-20T08:59:39;5.20;;;3.23;;
2784;SDS011;57944;48.722;9.316;2022-11-20T09:02:29;5.20;;;2.83;;
2784;SDS011;57944;48.722;9.316;2022-11-20T09:05:00;5.87;;;3.33;;
2784;SDS011;57944;48.722;9.316;2022-11-20T09:07:31;4.30;;;3.17;;
2784;SDS011;57944;48.722;9.316;2022-11-20T09:10:01;4.00;;;2.90;;
2784;SDS011;57944;48.722;9.316;2022-11-20T09:12:54;4.13;;;2.57;;
2784;SDS011;57944;48.722;9.316;2022-11-20T09:15:25;6.30;;;3.00;;
2784;SDS011;57944;48.722;9.316;2022-11-20T09:17:58;3.10;;;2.13;;
2784;SDS011;57944;48.722;9.316;2022-11-20T09:20:30;4.03;;;2.33;;
2784;SDS011;57944;48.722;9.316;2022-11-20T09:23:02;6.17;;;2.47;;
2784;SDS011;57944;48.722;9.316;2022-11-20T09:25:32;3.83;;;2.50;;
2784;SDS011;57944;48.722;9.316;2022-11-20T09:28:04;3.60;;;2.37;;
2784;SDS011;57944;48.722;9.316;2022-11-20T09:30:35;4.00;;;2.17;;
2784;SDS011;57944;48.722;9.316;2022-11-20T09:33:05;2.83;;;1.97;;
2784;SDS011;57944;48.722;9.316;2022-11-20T09:35:35;3.97;;;2.10;;
2784;SDS011;57944;48.722;9.316;2022-11-20T09:38:05;2.37;;;1.50;;
2784;SDS011;57944;48.722;9.316;2022-11-20T09:40:38;2.23;;;1.50;;
2784;SDS011;57944;48.722;9.316;2022-11-20T09:43:18;3.37;;;1.90;;
2784;SDS011;57944;48.722;9.316;2022-11-20T09:46:03;2.90;;;1.63;;
2784;SDS011;57944;48.722;9.316;2022-11-20T09:48:44;5.50;;;1.60;;
2784;SDS011;57944;48.722;9.316;2022-11-20T09:51:35;2.33;;;1.20;;
2784;SDS011;57944;48.722;9.316;2022-11-20T09:54:16;3.23;;;1.50;;
2784;SDS011;57944;48.722;9.316;2022-11-20T09:56:48;3.90;;;2.60;;
2784;SDS011;57944;48.722;9.316;2022-11-20T09:59:36;4.00;;;2.20;;
2784;SDS011;57944;48.722;9.316;2022-11-20T10:02:15;3.70;;;1.87;;
2784;SDS011;57944;48.722;9.316;2022-11-20T10:04:59;2.30;;;1.40;;
2784;SDS011;57944;48.722;9.316;2022-11-20T10:07:41;3.30;;;1.60;;
2784;SDS011;57944;48.722;9.316;2022-11-20T10:10:33;3.90;;;1.90;;
2784;SDS011;57944;48.722;9.316;2022-11-20T10:13:17;2.70;;;1.37;;
2784;SDS011;57944;48.722;9.316;2022-11-20T10:16:12;2.33;;;1.30;;
2784;SDS011;57944;48.722;9.316;2022-11-20T10:19:08;4.17;;;1.40;;
2784;SDS011;57944;48.722;9.316;2022-11-20T10:22:01;3.10;;;1.23;;
2784;SDS011;57944;48.722;9.316;2022-11-20T10:24:53;2.33;;;1.30;;
2784;SDS011;57944;48.722;9.316;2022-11-20T10:27:40;2.27;;;1.17;;
2784;SDS011;57944;48.722;9.316;2022-11-20T10:30:56;4.50;;;1.80;;
2784;SDS011;57944;48.722;9.316;2022-11-20T10:33:35;3.10;;;1.53;;
2784;SDS011;57944;48.722;9.316;2022-11-20T10:36:33;2.10;;;1.20;;
2784;SDS011;57944;48.722;9.316;2022-11-20T10:39:14;2.07;;;1.00;;
2784;SDS011;57944;48.722;9.316;2022-11-20T10:41:52;2.10;;;1.20;;
2784;SDS011;57944;48.722;9.316;2022-11-20T10:44:26;2.90;;;1.33;;
2784;SDS011;57944;48.722;9.316;2022-11-20T10:47:12;2.57;;;1.37;;
2784;SDS011;57944;48.722;9.316;2022-11-20T10:49:48;2.30;;;1.30;;
2784;SDS011;57944;48.722;9.316;2022-11-20T10:52:25;3.37;;;1.70;;
2784;SDS011;57944;48.722;9.316;2022-11-20T10:55:10;2.50;;;1.17;;
2784;SDS011;57944;48.722;9.316;2022-11-20T10:57:59;2.07;;;1.30;;
2784;SDS011;57944;48.722;9.316;2022-11-20T11:00:43;2.30;;;1.30;;
2784;SDS011;57944;48.722;9.316;2022-11-20T11:03:17;3.10;;;1.60;;
2784;SDS011;57944;48.722;9.316;2022-11-20T11:05:59;3.63;;;1.70;;
2784;SDS011;57944;48.722;9.316;2022-11-20T11:08:39;3.17;;;2.10;;
2784;SDS011;57944;48.722;9.316;2022-11-20T11:11:15;4.10;;;2.70;;
2784;SDS011;57944;48.722;9.316;2022-11-20T11:13:51;2.77;;;1.57;;
2784;SDS011;57944;48.722;9.316;2022-11-20T11:16:22;3.60;;;1.80;;
2784;SDS011;57944;48.722;9.316;2022-11-20T11:19:03;3.03;;;1.47;;
2784;SDS011;57944;48.722;9.316;2022-11-20T11:21:37;4.07;;;1.97;;
2784;SDS011;57944;48.722;9.316;2022-11-20T11:24:15;2.40;;;1.50;;
2784;SDS011;57944;48.722;9.316;2022-11-20T11:27:10;4.70;;;1.93;;
2784;SDS011;57944;48.722;9.316;2022-11-20T11:29:44;4.13;;;2.50;;
2784;SDS011;57944;48.722;9.316;2022-11-20T11:32:17;2.87;;;1.90;;
2784;SDS011;57944;48.722;9.316;2022-11-20T11:35:02;5.43;;;2.30;;
2784;SDS011;57944;48.722;9.316;2022-11-20T11:37:40;4.17;;;2.37;;
2784;SDS011;57944;48.722;9.316;2022-11-20T11:40:10;4.00;;;2.33;;
2784;SDS011;57944;48.722;9.316;2022-11-20T11:42:52;4.13;;;2.17;;
2784;SDS011;57944;48.722;9.316;2022-11-20T11:45:27;4.40;;;2.73;;
2784;SDS011;57944;48.722;9.316;2022-11-20T11:47:55;4.17;;;2.13;;
2784;SDS011;57944;48.722;9.316;2022-11-20T11:50:29;3.67;;;2.07;;
2784;SDS011;57944;48.722;9.316;2022-11-20T11:53:05;4.20;;;2.73;;
2784;SDS011;57944;48.722;9.316;2022-11-20T11:55:43;3.90;;;2.17;;
2784;SDS011;57944;48.722;9.316;2022-11-20T11:58:20;5.50;;;2.20;;
2784;SDS011;57944;48.722;9.316;2022-11-20T12:01:17;3.33;;;2.10;;
2784;SDS011;57944;48.722;9.316;2022-11-20T12:04:00;4.13;;;2.00;;
2784;SDS011;57944;48.722;9.316;2022-11-20T12:06:43;3.50;;;2.00;;
2784;SDS011;57944;48.722;9.316;2022-11-20T12:09:23;3.10;;;1.60;;
2784;SDS011;57944;48.722;9.316;2022-11-20T12:12:04;2.73;;;1.50;;
2784;SDS011;57944;48.722;9.316;2022-11-20T12:14:42;3.03;;;1.67;;
2784;SDS011;57944;48.722;9.316;2022-11-20T12:17:18;6.80;;;4.63;;
2784;SDS011;57944;48.722;9.316;2022-11-20T12:19:49;3.50;;;1.70;;
2784;SDS011;57944;48.722;9.316;2022-11-20T12:22:21;3.27;;;1.60;;
2784;SDS011;57944;48.722;9.316;2022-11-20T12:25:10;2.73;;;1.53;;
2784;SDS011;57944;48.722;9.316;2022-11-20T12:27:50;3.63;;;1.60;;
2784;SDS011;57944;48.722;9.316;2022-11-20T12:30:48;3.43;;;2.20;;
2784;SDS011;57944;48.722;9.316;2022-11-20T12:33:49;2.87;;;1.80;;
2784;SDS011;57944;48.722;9.316;2022-11-20T12:36:35;2.87;;;1.80;;
2784;SDS011;57944;48.722;9.316;2022-11-20T12:39:22;3.70;;;2.20;;
2784;SDS011;57944;48.722;9.316;2022-11-20T12:42:19;3.50;;;1.57;;
2784;SDS011;57944;48.722;9.316;2022-11-20T12:45:37;3.40;;;1.50;;
2784;SDS011;57944;48.722;9.316;2022-11-20T12:48:38;3.10;;;1.90;;
2784;SDS011;57944;48.722;9.316;2022-11-20T12:51:32;4.80;;;2.20;;
2784;SDS011;57944;48.722;9.316;2022-11-20T12:54:27;6.53;;;2.93;;
2784;SDS011;57944;48.722;9.316;2022-11-20T12:57:39;4.10;;;2.07;;
2784;SDS011;57944;48.722;9.316;2022-11-20T13:00:21;4.67;;;1.83;;
2784;SDS011;57944;48.722;9.316;2022-11-20T13:03:03;6.53;;;2.00;;
2784;SDS011;57944;48.722;9.316;2022-11-20T13:05:53;3.13;;;1.30;;
2784;SDS011;57944;48.722;9.316;2022-11-20T13:08:35;2.87;;;1.60;;
2784;SDS011;57944;48.722;9.316;2022-11-20T13:11:10;2.63;;;1.87;;
2784;SDS011;57944;48.722;9.316;2022-11-20T13:13:59;3.37;;;1.80;;
2784;SDS011;57944;48.722;9.316;2022-11-20T13:16:48;3.13;;;1.50;;
2784;SDS011;57944;48.722;9.316;2022-11-20T13:19:31;2.93;;;1.70;;
2784;SDS011;57944;48.722;9.316;2022-11-20T13:22:02;4.30;;;2.07;;
2784;SDS011;57944;48.722;9.316;2022-11-20T13:24:32;3.17;;;2.20;;
2784;SDS011;57944;48.722;9.316;2022-11-20T13:27:03;3.27;;;1.40;;
2784;SDS011;57944;48.722;9.316;2022-11-20T13:30:02;4.23;;;1.63;;
2784;SDS011;57944;48.722;9.316;2022-11-20T13:32:47;3.40;;;1.67;;
2784;SDS011;57944;48.722;9.316;2022-11-20T13:35:24;3.97;;;1.27;;
2784;SDS011;57944;48.722;9.316;2022-11-20T13:38:03;3.17;;;1.50;;
2784;SDS011;57944;48.722;9.316;2022-11-20T13:40:37;4.30;;;1.33;;
2784;SDS011;57944;48.722;9.316;2022-11-20T13:43:21;7.73;;;1.80;;
2784;SDS011;57944;48.722;9.316;2022-11-20T13:46:01;4.83;;;2.00;;
2784;SDS011;57944;48.722;9.316;2022-11-20T13:48:34;2.93;;;1.67;;
2784;SDS011;57944;48.722;9.316;2022-11-20T13:51:12;3.17;;;1.67;;
2784;SDS011;57944;48.722;9.316;2022-11-20T13:54:10;3.90;;;1.57;;
2784;SDS011;57944;48.722;9.316;2022-11-20T13:57:25;3.07;;;1.40;;
2784;SDS011;57944;48.722;9.316;2022-11-20T14:00:51;3.73;;;1.73;;
2784;SDS011;57944;48.722;9.316;2022-11-20T14:03:37;4.47;;;1.67;;
2784;SDS011;57944;48.722;9.316;2022-11-20T14:06:28;4.40;;;1.47;;
2784;SDS011;57944;48.722;9.316;2022-11-20T14:09:02;4.87;;;1.73;;
2784;SDS011;57944;48.722;9.316;2022-11-20T14:11:32;2.23;;;1.17;;
2784;SDS011;57944;48.722;9.316;2022-11-20T14:14:03;4.33;;;1.80;;
2784;SDS011;57944;48.722;9.316;2022-11-20T14:16:47;2.80;;;1.13;;
2784;SDS011;57944;48.722;9.316;2022-11-20T14:19:23;2.87;;;1.40;;
2784;SDS011;57944;48.722;9.316;2022-11-20T14:22:08;2.20;;;1.10;;
2784;SDS011;57944;48.722;9.316;2022-11-20T14:24:47;1.97;;;1.03;;
2784;SDS011;57944;48.722;9.316;2022-11-20T14:27:19;2.13;;;1.10;;
2784;SDS011;57944;48.722;9.316;2022-11-20T14:29:50;2.97;;;1.40;;
2784;SDS011;57944;48.722;9.316;2022-11-20T14:32:24;3.17;;;1.63;;
2784;SDS011;57944;48.722;9.316;2022-11-20T14:35:01;2.97;;;1.70;;
2784;SDS011;57944;48.722;9.316;2022-11-20T14:37:38;2.23;;;1.03;;
2784;SDS011;57944;48.722;9.316;2022-11-20T14:40:24;5.63;;;1.57;;
2784;SDS011;57944;48.722;9.316;2022-11-20T14:42:58;2.87;;;1.33;;
2784;SDS011;57944;48.722;9.316;2022-11-20T14:45:28;2.27;;;1.27;;
2784;SDS011;57944;48.722;9.316;2022-11-20T14:48:01;3.70;;;1.53;;
2784;SDS011;57944;48.722;9.316;2022-11-20T14:50:32;3.33;;;1.47;;
2784;SDS011;57944;48.722;9.316;2022-11-20T14:53:02;3.23;;;1.70;;
2784;SDS011;57944;48.722;9.316;2022-11-20T14:55:33;4.67;;;1.40;;
2784;SDS011;57944;48.722;9.316;2022-11-20T14:58:05;2.63;;;1.83;;
2784;SDS011;57944;48.722;9.316;2022-11-20T15:00:53;3.80;;;1.33;;
2784;SDS011;57944;48.722;9.316;2022-11-20T15:03:35;4.30;;;1.57;;
2784;SDS011;57944;48.722;9.316;2022-11-20T15:06:10;5.07;;;2.00;;
2784;SDS011;57944;48.722;9.316;2022-11-20T15:08:50;3.80;;;2.10;;
2784;SDS011;57944;48.722;9.316;2022-11-20T15:11:25;11.43;;;5.50;;
2784;SDS011;57944;48.722;9.316;2022-11-20T15:14:02;11.03;;;4.07;;
2784;SDS011;57944;48.722;9.316;2022-11-20T15:16:36;6.97;;;3.97;;
2784;SDS011;57944;48.722;9.316;2022-11-20T15:19:13;10.33;;;5.13;;
2784;SDS011;57944;48.722;9.316;2022-11-20T15:21:48;8.03;;;3.63;;
2784;SDS011;57944;48.722;9.316;2022-11-20T15:24:18;4.00;;;1.90;;
2784;SDS011;57944;48.722;9.316;2022-11-20T15:26:49;7.47;;;3.47;;
2784;SDS011;57944;48.722;9.316;2022-11-20T15:29:19;3.80;;;2.10;;
2784;SDS011;57944;48.722;9.316;2022-11-20T15:31:52;5.63;;;2.20;;
2784;SDS011;57944;48.722;9.316;2022-11-20T15:34:26;2.97;;;1.87;;
2784;SDS011;57944;48.722;9.316;2022-11-20T15:36:57;6.57;;;2.73;;
2784;SDS011;57944;48.722;9.316;2022-11-20T15:39:27;4.57;;;2.33;;
2784;SDS011;57944;48.722;9.316;2022-11-20T15:41:57;5.90;;;2.33;;
2784;SDS011;57944;48.722;9.316;2022-11-20T15:44:27;5.60;;;3.70;;
2784;SDS011;57944;48.722;9.316;2022-11-20T15:46:57;6.00;;;4.57;;
2784;SDS011;57944;48.722;9.316;2022-11-20T15:49:30;5.20;;;3.33;;
2784;SDS011;57944;48.722;9.316;2022-11-20T15:52:01;6.10;;;3.60;;